• Join FlightAware (Why Join?)
  • Login
  • US Flag 
04:09PM EDT


 

Airport Tracker/Info


-or-


 

Live Flight TrackerFlight Track Log ✈ N789RP ✈ 21-Apr-2012 ✈ KPQI - KBGR

Flight Track Log - Related Links

Times and Time Zones

All times are in EDT time to prevent confusion due to time zone crossing. See the N789RP flight status page for this flight to view local times or setup timezone preferences in your user account.

Time Position Orientation Groundspeed Altitude Reporting Facility
EDT Latitude Longitude Course Direction KTS MPH feet Rate Location/Type
05:17PM 46.7025 -68.0900 195° South 185 213 2,200  Level Boston Center
05:18PM 46.6636 -68.1053 194° South 100 115 3,400 1,140 Climbing Boston Center
05:19PM 46.6308 -68.1169 197° South 107 123 4,500 960 Climbing Boston Center
05:20PM 46.5981 -68.1314 193° South 120 138 5,400 840 Climbing Boston Center
05:21PM 46.5631 -68.1431 196° South 132 152 6,200 840 Climbing Boston Center
05:22PM 46.5281 -68.1578 197° South 132 152 7,100 840 Climbing Boston Center
05:23PM 46.4933 -68.1728 194° South 132 152 7,900 420 Climbing Boston Center
05:24PM 46.4522 -68.1878 197° South 140 161 8,000  Climbing Boston Center
05:25PM 46.4111 -68.2061 194° South 152 175 8,000  Level Boston Center
05:26PM 46.3681 -68.2214 196° South 162 186 8,000  Level Boston Center
05:27PM 46.3247 -68.2394 193° South 162 186 8,000  Level Boston Center
05:28PM 46.2797 -68.2550 200° South 162 186 8,000  Level Boston Center
05:29PM 46.2386 -68.2761 191° South 162 186 8,000  Level Boston Center
05:30PM 46.1953 -68.2881 196° South 162 186 8,000  Level Boston Center
05:31PM 46.1503 -68.3064 196° South 162 186 8,000  Level Boston Center
05:32PM 46.1069 -68.3247 195° South 162 186 8,000  Level Boston Center
05:33PM 46.0597 -68.3431 196° South 167 192 8,000  Level Boston Center
05:34PM 46.0147 -68.3611 196° South 167 192 8,000  Level Boston Center
05:35PM 45.9694 -68.3794 194° South 167 192 8,000  Level Boston Center
05:36PM 45.9261 -68.3944 197° South 167 192 8,000  Level Boston Center
05:37PM 45.8789 -68.4158 196° South 167 192 8,000  Level Boston Center
05:38PM 45.8339 -68.4339 193° South 167 192 8,000  Level Boston Center
05:39PM 45.7864 -68.4492 195° South 167 192 8,000  Level Boston Center
05:40PM 45.7411 -68.4669 201° Southwest 167 192 8,000  Level Boston Center
05:41PM 45.6983 -68.4908 195° South 167 192 8,000  Level Boston Center
05:42PM 45.6508 -68.5089 196° South 172 198 8,000  Level Boston Center
05:43PM 45.6078 -68.5267 196° South 172 198 8,000  Level Boston Center
05:44PM 45.5625 -68.5447 192° South 172 198 8,000  Level Boston Center
05:45PM 45.5150 -68.5597 199° South 172 198 8,000  Level Boston Center
05:46PM 45.4719 -68.5806 193° South 172 198 8,000  Level Boston Center
05:47PM 45.4267 -68.5953 195° South 172 198 8,000  Level Boston Center
05:48PM 45.3814 -68.6131 203° Southwest 172 198 8,000  Level Boston Center
05:49PM 45.3386 -68.6394 212° Southwest 172 198 8,000  Level Boston Center
05:50PM 45.3022 -68.6714 213° Southwest 165 190 8,000  Level Boston Center
05:51PM 45.2636 -68.7064 213° Southwest 165 190 8,000  Level Boston Center
05:52PM 45.2253 -68.7414 206° Southwest 165 190 8,000 -300 Level Boston Center
05:53PM 45.1822 -68.7706 204° Southwest 165 190 7,400 -660 Descending Boston Center
05:54PM 45.1353 -68.8000 205° Southwest 178 205 6,700 -780 Descending Boston Center
05:55PM 45.0906 -68.8294 208° Southwest 184 212 5,900 -900 Descending Boston Center
05:56PM 45.0436 -68.8647 214° Southwest 184 212 4,900 -1,020 Descending Boston Center
05:57PM 44.9969 -68.9086 216° Southwest 184 212 3,900 -1,080 Descending Boston Center
05:58PM 44.9606 -68.9461 221° Southwest 179 206 2,800 -720 Descending Boston Center
05:59PM 44.9306 -68.9831 169° South 166 191 2,500 -180 Descending Boston Center
06:00PM 44.9031 -68.9758 130° Southeast 110 127 2,500 -180 Level Boston Center
06:01PM 44.8811 -68.9389 130° Southeast 101 116 2,200 -300 Descending Boston Center